Weather observations for the past three days for
Lander
Metric (Imperial)
Date Time (mdt) Wind (kph) Vis. (km) Weather Sky Cond. Temperature (ºC) Relative Humidity Wind Chill (°C) Heat Index (°C) Pressure Precipitation (cm)
Air Dwpt 6 hour altimeter (cm) sea level (mb) 1 hr 3 hr 6 hr
Max. Min.
04 01:53 SW 11 16.09 Fair CLR 11.7 -5 31% 75.77 1004.6
04 00:53 S 7 16.09 Fair CLR 12.2 -4.4 31% 75.82 1005.2
03 23:53 SW 19 16.09 Fair CLR 12.2 -4.4 22.2 12.2 31% 75.84 1006.0
03 22:53 SW 22 16.09 Fair CLR 12.8 -3.9 31% 75.87 1006.5
03 21:53 W 17 16.09 Fair CLR 13.9 -4.4 28% 75.87 1006.8
03 20:53 NW 7 16.09 Fair CLR 15.6 -4.4 25% 75.82 1006.3
03 19:53 NW 9 16.09 Fair CLR 18.3 -6.1 19% 75.74 1004.9
03 18:53 N 24 16.09 Fair CLR 21.1 -8.9 12% 75.77 1005.2
03 17:53 N 19 16.09 Fair CLR 22.2 -9.4 22.8 17.2 11% 75.77 1005.2
03 16:53 W 11 G 37 16.09 Fair CLR 22.2 -10.6 10% 75.82 1005.4
03 15:53 Vrbl 7 16.09 Fair CLR 20.6 -7.2 15% 75.87 1006.5
03 14:53 SE 7 16.09 Fair CLR 21.1 -5.6 16% 75.95 1007.0
03 13:53 Vrbl 6 16.09 Fair CLR 21.1 -3.9 18% 76.02 1007.9
03 12:53 Calm 16.09 Fair CLR 19.4 -3.3 21% 76.1 1009.1
03 11:53 Calm 16.09 Fair CLR 17.2 -2.2 17.8 6.7 27% 76.17 1010.6
03 10:53 Vrbl 9 16.09 Fair CLR 16.7 -2.8 26% 76.23 1011.4
03 09:53 Vrbl 7 16.09 Fair CLR 14.4 -1.7 33% 76.28 1012.3
03 08:53 N 15 16.09 Fair CLR 12.2 -3.3 34% 76.3 1012.9
03 07:53 W 6 16.09 Fair CLR 11.1 -3.9 35% 76.3 1012.6
03 06:53 NW 6 16.09 Fair CLR 7.8 -4.4 42% 76.3 1012.9
03 05:53 NW 11 16.09 Fair CLR 7.2 -5.6 13.3 7.2 40% 5 76.25 1012.1
03 04:53 W 24 16.09 Fair CLR 8.3 -5 39% 5 76.25 1011.8
03 03:53 SW 19 16.09 Fair CLR 9.4 -5.6 35% 7 76.25 1011.5
03 02:53 Calm 16.09 Fair CLR 10.6 -5 33% 76.25 1011.4
03 01:53 SW 24 16.09 Fair CLR 11.7 -5 31% 76.23 1011.1
03 00:53 W 22 16.09 Fair CLR 12.2 -5.6 29% 76.25 1011.6
02 23:53 W 17 16.09 Fair CLR 12.8 -6.1 21.1 12.8 26% 76.25 1011.6
02 22:53 SW 28 16.09 Fair CLR 12.8 -6.7 25% 76.23 1011.4
02 21:53 W 15 16.09 Partly Cloudy SCT110 14.4 -6.1 24% 76.2 1011.1
02 20:53 SW 24 16.09 Fair CLR 15 -6.7 22% 76.17 1011.7
02 19:53 Calm 16.09 Fair CLR 18.3 -10.6 13% 76.12 1011.3
02 18:53 N 7 16.09 Fair CLR 19.4 -12.8 10% 76.15 1011.3
02 17:53 W 19 16.09 Fair CLR 21.1 -12.8 22.2 17.8 9% 76.17 1011.9
02 16:53 E 7 16.09 Fair CLR 21.7 -12.2 9% 76.2 1011.5
02 15:53 Vrbl 6 16.09 Fair CLR 21.1 -10.6 11% 76.25 1012.7
02 14:53 NE 17 G 33 16.09 Fair CLR 21.7 -8.9 12% 76.33 1013.1
02 13:53 NE 19 16.09 Fair CLR 20.6 -8.3 14% 76.4 1013.9
02 12:53 NE 9 16.09 Fair CLR 18.9 -9.4 14% 76.45 1015.6
02 11:53 E 7 16.09 Fair CLR 17.8 -10 18.9 2.2 14% 76.53 1016.5
02 10:53 SE 9 16.09 Fair CLR 17.2 -7.8 17% 76.56 1017.0
02 09:53 E 11 16.09 Fair CLR 15.6 -7.2 20% 76.58 1017.5
02 08:53 SE 7 16.09 Fair CLR 9.4 -1.1 48% 9 76.61 1018.8
02 07:53 SE 7 16.09 Fair CLR 4.4 -3.9 55% 3 76.61 1019.2
02 06:53 Calm 16.09 Fair CLR 5 -6.1 45% 76.61 1018.5
02 05:53 S 7 16.09 Fair CLR 2.8 -6.7 8.3 2.8 50% 1 76.61 1018.9
02 04:53 Calm 16.09 Fair CLR 5.6 -6.1 43% 76.61 1018.4
02 03:53 N 15 16.09 Fair CLR 3.9 -5.6 50% 1 76.61 1018.7
02 02:53 W 11 16.09 Fair CLR 6.7 -7.2 37% 5 76.58 1017.9
02 01:53 Vrbl 7 16.09 Fair CLR 8.3 -7.8 31% 7 76.61 1018.0
02 00:53 S 6 16.09 Fair CLR 6.7 -6.1 40% 76.63 1018.8
01 23:53 SW 9 16.09 Fair CLR 7.8 -7.2 16.7 6.7 34% 6 76.63 1018.9
01 22:53 SW 11 16.09 Fair CLR 8.3 -7.2 33% 7 76.63 1018.9
01 21:53 SW 11 16.09 Fair CLR 8.9 -6.1 34% 7 76.63 1019.2
01 20:53 SW 20 16.09 Fair CLR 10 -5.6 33% 8 76.56 1019.1
01 19:53 E 7 16.09 Fair CLR 13.9 -8.9 20% 76.5 1018.2
01 18:53 NW 6 16.09 Fair CLR 16.1 -9.4 17% 76.5 1017.8
01 17:53 Vrbl 9 16.09 Fair CLR 16.1 -9.4 17.2 12.2 17% 76.5 1018.1
01 16:53 Vrbl 6 16.09 Fair CLR 16.1 -9.4 17% 76.53 1018.0
01 15:53 Vrbl 9 16.09 Fair CLR 15.6 -8.9 18% 76.56 1018.2
01 14:53 Calm 16.09 Fair CLR 15 -8.3 19% 76.58 1019.0
01 13:53 NW 9 16.09 Fair CLR 15 -8.3 19% 76.61 1019.0
01 12:53 Calm 16.09 Fair CLR 13.9 -8.3 21% 76.63 1019.6
01 11:53 N 13 16.09 Fair CLR 12.8 -9.4 13.3 0 21% 76.66 1019.9
01 10:53 N 11 16.09 Fair CLR 12.2 -8.9 22% 76.68 1020.2
01 09:53 N 11 16.09 Fair CLR 10 -6.1 32% 9 76.68 1020.5
01 08:53 SE 7 16.09 Fair CLR 5.6 -2.8 55% 4 76.68 1021.3
01 07:53 Calm 16.09 Fair CLR 2.2 -3.3 67% 76.68 1021.5
01 06:53 S 6 16.09 Fair CLR 1.7 -5.6 59% 76.66 1021.2
01 05:53 E 9 16.09 Fair CLR 0.6 -6.1 5 0.6 61% -2 76.63 1020.8
01 04:53 Vrbl 6 16.09 Fair CLR 1.7 -6.1 57% 76.61 1020.9
01 03:53 SW 11 16.09 Fair CLR 2.8 -6.7 50% 0 76.61 1020.2
01 02:53 S 6 16.09 Fair CLR 2.8 -6.1 52% 76.61 1020.4
Date Time (mdt) Wind (kph) Vis. (km) Weather Sky Cond. Air Dwpt Max. Min. Relative Humidity Wind Chill (°C) Heat Index (°C) altimeter (cm) sea level (mb) 1 hr 3 hr 6 hr
6 hour
Temperature (ºC) Pressure Precipitation (cm)